Time;durP1;ratioP1;P1;durP2;ratioP2;P2;SDS_P1;SDS_P2;PMS_P1;PMS_P2;Temp;Humidity;BMP_temperature;BMP_pressure;BME280_temperature;BME280_humidity;BME280_pressure;Samples;Min_cycle;Max_cycle;Signal;HPM_P1;HPM_P2
2023/05/16 00:06:53;;;;;;;1.70;1.17;;;;;;;19.34;55.81;101458.94;20911985;28;20053;-64
2023/05/16 00:16:58;;;;;;;2.28;0.90;;;;;;;19.31;55.87;101463.75;20911225;28;20053;-64
2023/05/16 00:27:00;;;;;;;1.98;0.90;;;;;;;19.31;55.52;101467.31;20910256;28;20158;-64
2023/05/16 00:37:02;;;;;;;2.08;1.17;;;;;;;19.29;55.51;101466.59;20909509;28;20053;-64
2023/05/16 00:47:04;;;;;;;1.95;0.90;;;;;;;19.26;55.28;101462.31;20897537;28;20076;-64
2023/05/16 00:57:07;;;;;;;2.00;0.70;;;;;;;19.24;55.13;101471.53;20908734;28;20079;-64
2023/05/16 01:07:10;;;;;;;2.00;0.90;;;;;;;19.21;55.03;101475.34;20906862;28;20072;-64
2023/05/16 01:17:20;;;;;;;2.42;0.98;;;;;;;19.20;54.65;101486.25;20906302;28;20084;-64
2023/05/16 01:27:22;;;;;;;2.72;1.10;;;;;;;19.18;54.64;101489.09;20888654;28;20114;-64
2023/05/16 01:37:32;;;;;;;2.22;0.80;;;;;;;19.17;54.43;101494.63;20887067;28;20071;-64
2023/05/16 01:47:39;;;;;;;1.92;0.90;;;;;;;19.13;54.24;101485.94;20889837;28;20126;-64
2023/05/16 01:57:44;;;;;;;2.10;0.75;;;;;;;19.12;54.15;101489.63;20886389;28;20143;-64
2023/05/16 02:07:46;;;;;;;3.13;1.08;;;;;;;19.10;53.84;101486.19;20901536;28;20041;-64
2023/05/16 02:17:47;;;;;;;1.63;0.80;;;;;;;19.09;53.91;101489.88;20900465;28;20045;-64
2023/05/16 02:27:49;;;;;;;1.40;0.90;;;;;;;19.07;53.87;101484.59;20901663;28;20447;-64
2023/05/16 02:37:51;;;;;;;1.27;0.57;;;;;;;19.05;53.67;101488.44;20900363;28;20673;-64
2023/05/16 02:47:53;;;;;;;2.60;0.70;;;;;;;19.02;53.34;101489.53;20885535;28;20091;-64
2023/05/16 02:57:54;;;;;;;2.47;1.08;;;;;;;19.01;53.34;101503.19;20917573;28;20099;-64
2023/05/16 03:07:56;;;;;;;3.05;0.70;;;;;;;19.01;53.13;101513.97;20915482;28;20131;-64
2023/05/16 03:17:57;;;;;;;2.05;0.80;;;;;;;18.97;53.16;101514.19;20915376;28;20513;-64
2023/05/16 03:27:59;;;;;;;2.33;0.90;;;;;;;18.94;52.83;101516.28;20915366;28;20041;-64
2023/05/16 03:38:01;;;;;;;2.58;0.80;;;;;;;18.93;52.91;101523.50;20910041;28;20057;-64
2023/05/16 03:48:03;;;;;;;2.53;0.98;;;;;;;18.94;53.02;101536.00;20905059;28;20037;-64
2023/05/16 03:58:05;;;;;;;1.77;0.80;;;;;;;18.96;52.91;101541.28;20912827;28;20120;-64
2023/05/16 04:08:06;;;;;;;1.52;0.70;;;;;;;18.95;52.73;101551.22;20911003;28;20053;-64
2023/05/16 04:18:08;;;;;;;1.73;0.77;;;;;;;18.95;52.77;101553.91;20911057;28;20048;-64
2023/05/16 04:28:10;;;;;;;1.50;0.68;;;;;;;18.95;52.73;101544.97;20910430;28;20049;-64
2023/05/16 04:38:12;;;;;;;2.53;0.70;;;;;;;18.94;52.71;101554.91;20899849;28;20060;-64
2023/05/16 04:48:14;;;;;;;1.88;0.70;;;;;;;18.94;52.65;101563.00;20904598;28;20666;-64
2023/05/16 04:58:15;;;;;;;1.67;0.70;;;;;;;18.94;52.30;101568.38;20908013;28;20110;-64
2023/05/16 05:08:17;;;;;;;2.25;0.80;;;;;;;18.94;52.28;101581.88;20907536;28;20053;-64
2023/05/16 05:18:19;;;;;;;2.10;0.88;;;;;;;18.93;52.30;101588.25;20906489;28;20591;-64
2023/05/16 05:28:20;;;;;;;2.13;0.85;;;;;;;18.94;51.94;101589.13;20905598;28;20049;-64
2023/05/16 05:38:22;;;;;;;2.63;1.00;;;;;;;18.91;52.30;101595.63;20895017;28;20386;-64
2023/05/16 05:48:24;;;;;;;1.67;1.02;;;;;;;18.89;52.20;101600.28;20904601;28;20057;-64
2023/05/16 05:58:25;;;;;;;1.58;0.52;;;;;;;18.90;52.04;101609.25;20903253;28;20052;-64
2023/05/16 06:08:27;;;;;;;2.33;0.70;;;;;;;18.90;52.21;101603.88;20902612;28;20053;-64
2023/05/16 06:18:28;;;;;;;2.33;1.08;;;;;;;18.89;52.25;101616.47;20901805;28;20060;-64
2023/05/16 06:28:30;;;;;;;3.05;0.70;;;;;;;18.84;52.19;101621.41;20900827;28;20049;-64
2023/05/16 06:38:32;;;;;;;1.75;0.63;;;;;;;18.91;52.21;101611.81;20886829;28;20637;-64
2023/05/16 06:48:33;;;;;;;1.42;0.75;;;;;;;18.97;52.18;101629.34;20900022;28;20044;-64
2023/05/16 06:58:35;;;;;;;1.92;1.13;;;;;;;19.04;51.92;101637.84;20899163;28;20110;-64
2023/05/16 07:08:37;;;;;;;1.60;0.52;;;;;;;19.06;51.95;101641.28;20898259;28;20497;-64
2023/05/16 07:18:38;;;;;;;3.05;0.80;;;;;;;19.10;51.85;101640.03;20897671;28;20080;-64
2023/05/16 07:28:40;;;;;;;2.38;0.50;;;;;;;19.13;51.90;101653.28;20899153;28;20049;-64
2023/05/16 07:38:42;;;;;;;5.15;1.08;;;;;;;19.18;51.77;101653.75;20898341;28;20057;-64
2023/05/16 07:48:43;;;;;;;2.40;0.63;;;;;;;19.28;51.57;101661.94;20912711;28;20053;-64
2023/05/16 07:58:47;;;;;;;2.03;0.77;;;;;;;19.31;51.34;101652.72;20911140;28;20057;-64
2023/05/16 08:08:49;;;;;;;1.40;0.60;;;;;;;19.35;51.38;101656.88;20911436;28;20230;-64
2023/05/16 08:18:50;;;;;;;1.40;0.60;;;;;;;19.47;51.17;101650.47;20910436;28;20076;-64
2023/05/16 08:28:52;;;;;;;1.40;0.60;;;;;;;19.55;50.88;101652.50;20909895;28;20067;-64
2023/05/16 08:38:53;;;;;;;1.13;0.60;;;;;;;19.52;50.93;101664.44;20897707;28;20424;-64
2023/05/16 08:48:58;;;;;;;2.35;1.02;;;;;;;19.50;51.08;101677.22;20907307;28;20053;-64
2023/05/16 08:59:01;;;;;;;1.85;0.70;;;;;;;19.54;51.12;101667.88;20907806;28;20424;-64
2023/05/16 09:09:06;;;;;;;1.48;0.65;;;;;;;19.61;51.04;101667.34;20906000;28;20132;-64
2023/05/16 09:19:11;;;;;;;1.35;0.57;;;;;;;19.61;50.66;101667.34;20905273;28;20065;-64
2023/05/16 09:29:13;;;;;;;1.00;0.40;;;;;;;19.63;50.76;101666.22;20903206;28;20069;-64
2023/05/16 09:39:15;;;;;;;1.40;0.55;;;;;;;19.63;50.84;101665.38;20891733;28;20501;-64
2023/05/16 09:49:17;;;;;;;1.40;0.80;;;;;;;19.60;50.65;101680.00;20903861;28;20088;-64
2023/05/16 09:59:18;;;;;;;0.77;0.55;;;;;;;19.64;50.42;101667.09;20902950;28;20053;-64
2023/05/16 10:09:21;;;;;;;1.27;0.50;;;;;;;19.66;50.88;101670.53;20901229;28;20110;-64
2023/05/16 10:19:24;;;;;;;1.35;0.57;;;;;;;19.62;50.29;101690.69;20900439;28;20053;-64
2023/05/16 10:29:27;;;;;;;2.35;0.73;;;;;;;19.63;50.11;101684.28;20892683;28;20444;-64
2023/05/16 10:39:28;;;;;;;1.80;0.50;;;;;;;19.66;50.66;101673.22;20896939;28;20084;-64
2023/05/16 10:49:30;;;;;;;1.65;0.60;;;;;;;19.65;50.56;101672.34;20883237;28;20132;-64
2023/05/16 10:59:48;;;;;;;1.25;0.60;;;;;;;19.62;50.43;101674.47;20900523;28;20721;-64
2023/05/16 11:10:03;;;;;;;1.35;0.60;;;;;;;19.65;50.57;101685.88;20901616;28;20052;-64
2023/05/16 11:20:05;;;;;;;1.13;0.60;;;;;;;19.69;50.46;101683.78;20915641;28;20087;-64
2023/05/16 11:30:14;;;;;;;2.70;0.75;;;;;;;19.70;50.43;101661.19;20898865;28;20119;-64
2023/05/16 11:40:16;;;;;;;2.55;0.63;;;;;;;19.73;50.39;101684.38;20913528;28;20136;-64
2023/05/16 11:50:19;;;;;;;1.33;0.40;;;;;;;19.73;50.32;101679.81;20912468;28;20051;-64
2023/05/16 12:00:25;;;;;;;0.60;0.38;;;;;;;19.76;50.04;101684.13;20912729;28;20044;-64
2023/05/16 12:10:27;;;;;;;1.50;0.40;;;;;;;19.77;49.92;101688.53;20911303;28;20053;-64
2023/05/16 12:20:29;;;;;;;1.42;0.50;;;;;;;19.76;49.92;101698.47;20908104;28;20535;-64
2023/05/16 12:30:31;;;;;;;1.17;0.55;;;;;;;19.76;50.03;101697.63;20901530;28;20079;-64
2023/05/16 12:40:35;;;;;;;1.23;0.80;;;;;;;19.73;50.03;101703.28;20909692;28;20049;-64
2023/05/16 12:50:38;;;;;;;1.07;0.50;;;;;;;19.65;49.99;101710.16;20908815;28;20044;-64
2023/05/16 13:00:40;;;;;;;1.85;0.63;;;;;;;19.69;50.00;101716.19;20908237;28;20456;-64
2023/05/16 13:10:41;;;;;;;1.08;0.65;;;;;;;19.69;50.39;101710.78;20906975;28;20053;-64
2023/05/16 13:20:43;;;;;;;1.88;0.70;;;;;;;19.71;50.54;101698.00;20906325;28;20056;-64
2023/05/16 13:30:44;;;;;;;1.85;1.20;;;;;;;19.70;50.29;101704.41;20893052;28;20443;-64
2023/05/16 13:40:46;;;;;;;2.28;0.90;;;;;;;19.69;50.10;101729.69;20903393;28;20059;-64
2023/05/16 13:50:48;;;;;;;2.25;0.90;;;;;;;19.68;50.23;101727.97;20903806;28;20049;-64
2023/05/16 14:00:49;;;;;;;2.17;0.95;;;;;;;19.65;50.05;101747.16;20903495;28;20413;-64
2023/05/16 14:10:51;;;;;;;1.95;0.77;;;;;;;19.63;50.04;101751.81;20902574;28;20055;-64
2023/05/16 14:20:55;;;;;;;1.25;0.82;;;;;;;19.61;50.23;101746.53;20901801;28;20057;-64
2023/05/16 14:31:00;;;;;;;2.25;0.98;;;;;;;19.60;50.12;101758.31;20884322;28;20072;-64
2023/05/16 14:41:01;;;;;;;1.70;0.98;;;;;;;19.59;50.06;101793.56;20901031;28;20049;-64
2023/05/16 14:51:03;;;;;;;1.48;1.00;;;;;;;19.55;50.33;101782.16;20899689;28;20055;-64
2023/05/16 15:01:05;;;;;;;1.23;0.85;;;;;;;19.55;50.39;101793.84;20898889;28;20060;-64
2023/05/16 15:11:07;;;;;;;1.05;0.70;;;;;;;19.55;50.66;101795.66;20899766;28;20045;-64
2023/05/16 15:21:09;;;;;;;1.63;0.98;;;;;;;19.52;50.80;101802.19;20896920;28;20120;-64
2023/05/16 15:31:10;;;;;;;1.27;0.70;;;;;;;19.52;50.79;101801.31;20890415;28;20509;-64
2023/05/16 15:41:13;;;;;;;1.50;0.95;;;;;;;19.50;51.12;101811.38;20881138;28;20504;-64
2023/05/16 15:51:35;;;;;;;2.05;1.15;;;;;;;19.48;51.31;101813.34;20898087;28;20572;-64
2023/05/16 16:01:37;;;;;;;1.05;0.75;;;;;;;19.45;51.43;101805.50;20909561;28;20409;-64
2023/05/16 16:11:38;;;;;;;1.10;0.90;;;;;;;19.43;51.79;101805.59;20912156;28;20048;-64
2023/05/16 16:21:40;;;;;;;1.77;1.00;;;;;;;19.42;51.84;101802.06;20897467;28;20088;-64
2023/05/16 16:31:42;;;;;;;1.30;0.90;;;;;;;19.41;51.90;101813.84;20907957;28;20076;-64
2023/05/16 16:41:43;;;;;;;2.15;1.00;;;;;;;19.39;52.18;101826.63;20909512;28;20056;-64
2023/05/16 16:51:46;;;;;;;0.98;0.85;;;;;;;19.37;51.89;101825.88;20909173;28;20055;-64
2023/05/16 17:01:47;;;;;;;1.10;0.85;;;;;;;19.36;51.95;101821.47;20907959;28;20085;-64
2023/05/16 17:11:50;;;;;;;2.15;1.13;;;;;;;19.35;52.11;101826.97;20906832;28;20437;-64
2023/05/16 17:21:52;;;;;;;3.10;0.95;;;;;;;19.33;52.02;101837.03;20896219;28;20053;-64
2023/05/16 17:31:53;;;;;;;2.15;0.95;;;;;;;19.31;51.83;101841.72;20905666;28;20582;-64
2023/05/16 17:41:56;;;;;;;1.27;0.95;;;;;;;19.31;51.94;101852.50;20903476;28;20049;-64
2023/05/16 17:51:57;;;;;;;1.48;0.95;;;;;;;19.28;52.04;101857.16;20903833;28;20081;-64
2023/05/16 18:01:59;;;;;;;2.05;0.88;;;;;;;19.27;51.81;101860.84;20902842;28;20412;-64
2023/05/16 18:12:01;;;;;;;1.63;0.70;;;;;;;19.27;51.95;101858.16;20902880;28;20099;-64
2023/05/16 18:22:06;;;;;;;0.77;0.68;;;;;;;19.27;52.04;101874.34;20888541;28;20060;-64
2023/05/16 18:32:08;;;;;;;2.10;0.80;;;;;;;19.22;51.86;101868.47;20899794;28;20057;-64
2023/05/16 18:42:10;;;;;;;1.75;1.00;;;;;;;19.25;51.81;101868.22;20899446;28;20133;-64
2023/05/16 18:52:12;;;;;;;1.23;0.80;;;;;;;19.23;51.89;101870.19;20899850;28;20045;-63
2023/05/16 19:02:13;;;;;;;1.50;0.65;;;;;;;19.22;51.79;101887.34;20900221;28;20049;-64
2023/05/16 19:12:15;;;;;;;1.25;0.82;;;;;;;19.22;51.77;101900.84;20898167;28;20127;-64
2023/05/16 19:22:16;;;;;;;0.80;0.77;;;;;;;19.21;51.70;101906.38;20882048;28;20045;-64
2023/05/16 19:32:19;;;;;;;1.73;0.90;;;;;;;19.18;51.54;101915.56;20904527;28;20465;-63
2023/05/16 19:42:21;;;;;;;2.05;1.00;;;;;;;19.18;51.61;101922.81;20914176;28;20053;-64
2023/05/16 19:52:24;;;;;;;1.58;0.95;;;;;;;19.17;51.57;101923.78;20911987;28;20127;-64
2023/05/16 20:02:26;;;;;;;1.65;0.85;;;;;;;19.14;51.59;101927.59;20911832;28;20147;-64
2023/05/16 20:12:28;;;;;;;1.25;0.80;;;;;;;19.13;51.47;101929.41;20911913;28;20053;-64
2023/05/16 20:22:29;;;;;;;1.60;1.00;;;;;;;19.10;51.62;101928.81;20900278;28;20405;-64
2023/05/16 20:32:31;;;;;;;1.90;0.93;;;;;;;19.05;51.61;101926.47;20910572;28;20053;-63
2023/05/16 20:42:33;;;;;;;1.30;0.90;;;;;;;19.03;51.75;101939.22;20908138;28;20041;-64
2023/05/16 20:52:35;;;;;;;2.55;1.13;;;;;;;19.09;51.79;101948.69;20908787;28;20589;-64
2023/05/16 21:02:37;;;;;;;1.70;1.10;;;;;;;19.07;51.75;101958.75;20907984;28;20049;-64
2023/05/16 21:12:38;;;;;;;1.77;1.00;;;;;;;19.05;51.83;101961.56;20901075;28;20437;-64
2023/05/16 21:22:41;;;;;;;3.08;1.25;;;;;;;19.04;52.01;101964.38;20896590;28;20053;-64
2023/05/16 21:32:42;;;;;;;3.13;1.25;;;;;;;19.03;51.91;101951.88;20904312;28;20075;-64
2023/05/16 21:42:44;;;;;;;1.50;1.20;;;;;;;19.01;51.96;101951.13;20904564;28;20049;-63
2023/05/16 21:52:46;;;;;;;2.42;1.35;;;;;;;19.01;51.85;101970.03;20903958;28;20408;-64
2023/05/16 22:02:48;;;;;;;2.58;1.30;;;;;;;18.98;52.23;101963.00;20902932;28;20609;-63
2023/05/16 22:12:50;;;;;;;1.83;1.10;;;;;;;18.98;52.11;101974.66;20892592;28;20049;-64
2023/05/16 22:22:51;;;;;;;2.60;1.40;;;;;;;18.97;52.27;101967.53;20902036;28;20045;-64
2023/05/16 22:32:55;;;;;;;2.30;1.30;;;;;;;18.97;52.27;101972.91;20900221;28;20053;-63
2023/05/16 22:42:57;;;;;;;3.43;1.23;;;;;;;18.96;52.46;101954.97;20900740;28;20068;-63
2023/05/16 22:52:59;;;;;;;4.25;1.67;;;;;;;18.95;52.33;101969.44;20900246;28;20081;-64
2023/05/16 23:03:00;;;;;;;2.70;1.30;;;;;;;18.95;52.48;101969.44;20899993;28;20532;-63
2023/05/16 23:13:02;;;;;;;4.00;1.20;;;;;;;18.94;52.67;101970.44;20901500;28;20049;-64
2023/05/16 23:23:04;;;;;;;3.92;1.63;;;;;;;18.93;52.53;101960.63;20916070;28;20044;-64
2023/05/16 23:33:06;;;;;;;3.47;1.83;;;;;;;18.92;52.46;101967.00;20914901;28;20129;-63
2023/05/16 23:43:07;;;;;;;2.50;1.40;;;;;;;18.91;52.65;101973.38;20914395;28;20835;-64
2023/05/16 23:53:09;;;;;;;3.60;1.33;;;;;;;18.89;52.63;101987.97;20913420;28;20136;-63
